Time;durP1;ratioP1;P1;durP2;ratioP2;P2;SDS_P1;SDS_P2;PMS_P1;PMS_P2;Temp;Humidity;BMP_temperature;BMP_pressure;BME280_temperature;BME280_humidity;BME280_pressure;Samples;Min_cycle;Max_cycle;Signal;HPM_P1;HPM_P2
2020/12/13 00:00:39;;;;;;;42.73;20.30;;;9.50;99.90;;;;;;5082402;28;20208;-74
2020/12/13 00:03:05;;;;;;;40.53;22.07;;;9.30;99.90;;;;;;5093217;28;20422;-72
2020/12/13 00:05:31;;;;;;;39.53;22.10;;;9.30;99.90;;;;;;5094212;28;20169;-73
2020/12/13 00:07:57;;;;;;;54.93;24.83;;;9.10;99.90;;;;;;5097229;28;20521;-73
2020/12/13 00:10:23;;;;;;;36.43;20.50;;;9.00;99.90;;;;;;5095307;28;20194;-73
2020/12/13 00:12:49;;;;;;;38.73;21.20;;;9.00;99.90;;;;;;5089814;28;20423;-72
2020/12/13 00:15:15;;;;;;;44.77;22.03;;;8.90;99.90;;;;;;5093621;28;20851;-73
2020/12/13 00:17:40;;;;;;;38.30;21.30;;;8.90;99.90;;;;;;5094766;28;20920;-73
2020/12/13 00:20:07;;;;;;;42.70;21.00;;;8.90;99.90;;;;;;5094062;28;20215;-72
2020/12/13 00:22:33;;;;;;;36.13;22.20;;;8.90;99.90;;;;;;5094497;28;20161;-73
2020/12/13 00:24:58;;;;;;;35.27;22.63;;;8.90;99.90;;;;;;5099555;28;20445;-74
2020/12/13 00:27:24;;;;;;;37.67;21.33;;;9.00;99.90;;;;;;5100183;28;20252;-74
2020/12/13 00:29:50;;;;;;;37.10;19.47;;;9.00;99.90;;;;;;5098240;28;20185;-72
2020/12/13 00:32:15;;;;;;;33.30;20.07;;;8.90;99.90;;;;;;5094834;28;20197;-74
2020/12/13 00:34:41;;;;;;;38.60;20.73;;;9.00;99.90;;;;;;5092366;28;20178;-73
2020/12/13 00:37:07;;;;;;;35.93;21.00;;;9.00;99.90;;;;;;5087240;28;20204;-74
2020/12/13 00:39:34;;;;;;;38.37;21.50;;;8.90;99.90;;;;;;5089045;28;20213;-74
2020/12/13 00:42:00;;;;;;;34.23;21.87;;;8.90;99.90;;;;;;5084695;28;20186;-74
2020/12/13 00:44:26;;;;;;;34.63;21.70;;;8.80;99.90;;;;;;5091281;28;20416;-72
2020/12/13 00:46:53;;;;;;;40.33;23.60;;;8.80;99.90;;;;;;5091146;28;20437;-73
2020/12/13 00:49:18;;;;;;;33.47;21.60;;;8.80;99.90;;;;;;5081581;28;20190;-73
2020/12/13 00:51:45;;;;;;;37.60;23.77;;;8.80;99.90;;;;;;5084545;28;20859;-73
2020/12/13 00:54:10;;;;;;;31.70;20.57;;;8.80;99.90;;;;;;5081344;28;20471;-73
2020/12/13 00:56:36;;;;;;;36.83;21.57;;;8.80;99.90;;;;;;5074290;28;20244;-73
2020/12/13 00:59:02;;;;;;;36.10;21.50;;;8.70;99.90;;;;;;5081787;28;20205;-73
2020/12/13 01:01:28;;;;;;;34.70;22.40;;;8.70;99.90;;;;;;5087903;28;20207;-73
2020/12/13 01:03:54;;;;;;;35.40;22.17;;;8.70;99.90;;;;;;5076750;28;20793;-73
2020/12/13 01:06:23;;;;;;;32.77;21.37;;;8.70;99.90;;;;;;5077167;28;20170;-72
2020/12/13 01:08:53;;;;;;;35.80;20.23;;;8.60;99.90;;;;;;5076649;28;20181;-73
2020/12/13 01:11:24;;;;;;;39.20;22.10;;;8.60;99.90;;;;;;5083279;28;20546;-72
2020/12/13 01:13:49;;;;;;;32.27;20.27;;;8.60;99.90;;;;;;5079761;28;20984;-73
2020/12/13 01:16:16;;;;;;;39.10;23.40;;;8.60;99.90;;;;;;5081731;28;20420;-72
2020/12/13 01:18:42;;;;;;;36.97;22.60;;;8.60;99.90;;;;;;5081417;28;20181;-72
2020/12/13 01:21:14;;;;;;;40.40;26.07;;;8.60;99.90;;;;;;5082466;28;20455;-72
2020/12/13 01:23:39;;;;;;;41.10;20.83;;;8.60;99.90;;;;;;5085683;28;20434;-73
2020/12/13 01:26:05;;;;;;;41.57;23.43;;;8.60;99.90;;;;;;5091800;28;20411;-75
2020/12/13 01:28:30;;;;;;;33.83;21.60;;;8.70;99.90;;;;;;5091724;28;20212;-73
2020/12/13 01:30:56;;;;;;;38.60;23.23;;;8.60;99.90;;;;;;5086709;28;20197;-73
2020/12/13 01:33:21;;;;;;;38.23;23.90;;;8.70;99.90;;;;;;5092843;28;20209;-72
2020/12/13 01:35:47;;;;;;;40.03;23.20;;;8.80;99.90;;;;;;5085122;28;20184;-72
2020/12/13 01:38:12;;;;;;;40.33;24.23;;;8.90;99.90;;;;;;5090255;28;20246;-71
2020/12/13 01:40:38;;;;;;;42.57;23.37;;;9.00;99.90;;;;;;5082197;28;20283;-73
2020/12/13 01:43:04;;;;;;;34.80;23.10;;;8.80;99.90;;;;;;5079241;28;20627;-72
2020/12/13 01:45:29;;;;;;;41.57;24.00;;;8.80;99.90;;;;;;5077912;28;20174;-72
2020/12/13 01:47:55;;;;;;;33.97;22.93;;;8.80;99.90;;;;;;5085241;28;20182;-73
2020/12/13 01:50:39;;;;;;;34.40;21.20;;;8.80;99.90;;;;;;5088625;28;20293;-73
2020/12/13 01:53:14;;;;;;;45.13;24.43;;;8.90;99.90;;;;;;5076299;28;20545;-73
2020/12/13 01:55:48;;;;;;;33.80;23.17;;;8.80;99.90;;;;;;5074466;28;20416;-72
2020/12/13 01:58:23;;;;;;;35.40;22.10;;;8.80;99.90;;;;;;5089215;28;20434;-73
2020/12/13 02:00:49;;;;;;;36.07;21.43;;;8.90;99.90;;;;;;5080921;28;20460;-72
2020/12/13 02:03:25;;;;;;;35.40;21.97;;;8.90;99.90;;;;;;5083727;28;20427;-73
2020/12/13 02:05:57;;;;;;;31.53;21.70;;;8.90;99.90;;;;;;5075523;28;20431;-72
2020/12/13 02:08:23;;;;;;;31.60;20.63;;;8.90;99.90;;;;;;5085094;28;20424;-73
2020/12/13 02:10:50;;;;;;;33.93;20.80;;;8.90;99.90;;;;;;5083612;28;20462;-73
2020/12/13 02:13:15;;;;;;;32.50;22.10;;;9.00;99.90;;;;;;5090719;28;20442;-73
2020/12/13 02:15:41;;;;;;;38.03;24.40;;;9.00;99.90;;;;;;5091047;28;20800;-73
2020/12/13 02:18:07;;;;;;;35.37;23.17;;;8.90;99.90;;;;;;5088666;28;20717;-73
2020/12/13 02:20:33;;;;;;;33.27;20.77;;;8.80;99.90;;;;;;5082877;28;20214;-73
2020/12/13 02:23:01;;;;;;;31.30;21.33;;;8.80;99.90;;;;;;5089523;28;20182;-73
2020/12/13 02:25:27;;;;;;;32.90;22.23;;;8.80;99.90;;;;;;5090493;28;20222;-73
2020/12/13 02:27:52;;;;;;;34.07;22.13;;;8.80;99.90;;;;;;5092453;28;20415;-72
2020/12/13 02:30:18;;;;;;;38.17;23.20;;;8.70;99.90;;;;;;5089848;28;20450;-72
2020/12/13 02:32:44;;;;;;;36.97;22.47;;;8.70;99.90;;;;;;5092229;28;20180;-73
2020/12/13 02:35:10;;;;;;;37.20;22.70;;;8.80;99.90;;;;;;5092482;28;20635;-73
2020/12/13 02:37:36;;;;;;;40.77;23.70;;;8.70;99.90;;;;;;5091782;28;20639;-73
2020/12/13 02:40:04;;;;;;;40.60;24.20;;;8.70;99.90;;;;;;5091883;28;20489;-72
2020/12/13 02:42:30;;;;;;;37.60;23.27;;;8.60;99.90;;;;;;5091695;28;20426;-73
2020/12/13 02:44:55;;;;;;;37.90;25.17;;;8.60;99.90;;;;;;5092331;28;20498;-72
2020/12/13 02:47:21;;;;;;;38.53;23.60;;;8.60;99.90;;;;;;5091979;28;20774;-72
2020/12/13 02:49:46;;;;;;;40.37;22.93;;;8.50;99.90;;;;;;5092049;28;20217;-73
2020/12/13 02:52:16;;;;;;;35.77;22.20;;;8.60;99.90;;;;;;5091576;28;20181;-73
2020/12/13 02:54:41;;;;;;;31.10;22.33;;;8.50;99.90;;;;;;5090747;28;20638;-73
2020/12/13 02:57:07;;;;;;;37.63;21.93;;;8.50;99.90;;;;;;5091875;28;20424;-73
2020/12/13 02:59:33;;;;;;;30.97;20.70;;;8.50;99.90;;;;;;5092131;28;20247;-73
2020/12/13 03:01:58;;;;;;;30.87;19.70;;;8.50;99.90;;;;;;5091779;28;20181;-73
2020/12/13 03:04:24;;;;;;;38.47;21.20;;;8.60;99.90;;;;;;5091846;28;20174;-73
2020/12/13 03:06:49;;;;;;;34.50;20.97;;;8.60;99.90;;;;;;5091966;28;20268;-73
2020/12/13 03:09:15;;;;;;;31.30;20.83;;;8.60;99.90;;;;;;5075338;28;20182;-72
2020/12/13 03:11:40;;;;;;;30.17;19.10;;;8.60;99.90;;;;;;5091964;28;20173;-72
2020/12/13 03:14:07;;;;;;;30.70;18.87;;;8.70;99.90;;;;;;5091615;28;20635;-73
2020/12/13 03:16:32;;;;;;;30.93;19.73;;;8.70;99.90;;;;;;5091503;28;20177;-72
2020/12/13 03:18:58;;;;;;;34.57;20.60;;;8.70;99.90;;;;;;5086032;28;20419;-72
2020/12/13 03:21:24;;;;;;;29.13;19.97;;;8.70;99.90;;;;;;5089544;28;20194;-73
2020/12/13 03:23:49;;;;;;;35.80;20.90;;;8.70;99.90;;;;;;5091927;28;20646;-72
2020/12/13 03:26:15;;;;;;;35.30;21.73;;;8.70;99.90;;;;;;5095794;28;20174;-73
2020/12/13 03:28:40;;;;;;;34.03;20.43;;;8.60;99.90;;;;;;5094392;28;20173;-73
2020/12/13 03:31:06;;;;;;;32.90;20.73;;;8.60;99.90;;;;;;5094050;28;20204;-72
2020/12/13 03:33:31;;;;;;;32.30;22.20;;;8.60;99.90;;;;;;5095911;28;20178;-73
2020/12/13 03:35:57;;;;;;;32.60;21.90;;;8.50;99.90;;;;;;5094961;28;20230;-72
2020/12/13 03:38:23;;;;;;;32.73;22.50;;;8.60;99.90;;;;;;5086187;28;20713;-72
2020/12/13 03:40:48;;;;;;;32.77;20.67;;;8.50;99.90;;;;;;5086744;28;20206;-72
2020/12/13 03:43:14;;;;;;;27.00;19.43;;;8.50;99.90;;;;;;5094014;28;20173;-72
2020/12/13 03:45:40;;;;;;;29.27;21.30;;;8.50;99.90;;;;;;5084596;28;20182;-72
2020/12/13 03:48:05;;;;;;;33.77;21.30;;;8.60;99.90;;;;;;5092433;28;20182;-73
2020/12/13 03:50:40;;;;;;;35.00;20.50;;;8.50;99.90;;;;;;5087469;28;20222;-73
2020/12/13 03:53:13;;;;;;;33.57;20.90;;;8.60;99.90;;;;;;5078681;28;20672;-72
2020/12/13 03:55:40;;;;;;;32.00;20.23;;;8.70;99.90;;;;;;5091359;28;20423;-72
2020/12/13 03:58:06;;;;;;;33.77;20.20;;;8.60;99.90;;;;;;5085738;28;20434;-73
2020/12/13 04:00:33;;;;;;;29.53;20.53;;;8.60;99.90;;;;;;5092491;28;20458;-72
2020/12/13 04:02:59;;;;;;;24.80;17.57;;;8.60;99.90;;;;;;5090318;28;20419;-72
2020/12/13 04:05:26;;;;;;;27.60;18.10;;;8.60;99.90;;;;;;5092185;28;20916;-72
2020/12/13 04:07:52;;;;;;;26.63;17.63;;;8.60;99.90;;;;;;5080161;28;20466;-73
2020/12/13 04:10:20;;;;;;;25.77;15.77;;;8.60;99.90;;;;;;5081418;28;20474;-72
2020/12/13 04:12:47;;;;;;;22.00;15.20;;;8.70;99.90;;;;;;5082062;28;20514;-73
2020/12/13 04:15:13;;;;;;;18.67;12.70;;;8.70;99.90;;;;;;5094035;28;20412;-72
2020/12/13 04:17:39;;;;;;;22.40;15.13;;;8.70;99.90;;;;;;5093650;28;20855;-73
2020/12/13 04:20:06;;;;;;;22.33;13.73;;;8.60;99.90;;;;;;5093204;28;20503;-72
2020/12/13 04:22:31;;;;;;;20.60;13.50;;;8.60;99.90;;;;;;5093215;28;20169;-73
2020/12/13 04:24:57;;;;;;;18.97;13.37;;;8.60;99.90;;;;;;5090795;28;20415;-73
2020/12/13 04:27:23;;;;;;;20.30;13.07;;;8.70;99.90;;;;;;5094808;28;20626;-72
2020/12/13 04:29:48;;;;;;;18.77;13.57;;;8.70;99.90;;;;;;5094456;28;20658;-73
2020/12/13 04:32:14;;;;;;;22.03;12.97;;;8.70;99.90;;;;;;5094382;28;20173;-73
2020/12/13 04:34:40;;;;;;;27.13;13.30;;;8.70;99.90;;;;;;5094021;28;20584;-72
2020/12/13 04:37:06;;;;;;;18.27;12.23;;;8.60;99.90;;;;;;5093790;28;20411;-72
2020/12/13 04:39:31;;;;;;;18.37;12.93;;;8.50;99.90;;;;;;5092257;28;20601;-73
2020/12/13 04:41:57;;;;;;;23.30;12.50;;;8.50;99.90;;;;;;5085927;28;20181;-72
2020/12/13 04:44:23;;;;;;;25.93;11.67;;;8.50;99.90;;;;;;5089029;28;20166;-73
2020/12/13 04:46:53;;;;;;;16.00;11.53;;;8.50;99.90;;;;;;5083804;28;20172;-72
2020/12/13 04:49:23;;;;;;;20.80;13.63;;;8.50;99.90;;;;;;5085927;28;20435;-73
2020/12/13 04:51:50;;;;;;;19.50;11.97;;;8.40;99.90;;;;;;5074062;28;20420;-73
2020/12/13 04:54:27;;;;;;;24.27;11.70;;;8.40;99.90;;;;;;5086892;28;20431;-73
2020/12/13 04:56:54;;;;;;;17.63;12.03;;;8.40;99.90;;;;;;5087365;28;20427;-73
2020/12/13 04:59:20;;;;;;;15.07;10.73;;;8.40;99.90;;;;;;5086179;28;20456;-73
2020/12/13 05:01:47;;;;;;;16.43;13.03;;;8.40;99.90;;;;;;5087668;28;20419;-72
2020/12/13 05:04:13;;;;;;;20.23;11.30;;;8.40;99.90;;;;;;5088924;28;20596;-73
2020/12/13 05:06:40;;;;;;;15.50;11.10;;;8.40;99.90;;;;;;5082841;28;20486;-73
2020/12/13 05:09:07;;;;;;;18.63;13.13;;;8.40;99.90;;;;;;5082829;28;20435;-72
2020/12/13 05:11:33;;;;;;;19.63;12.63;;;8.30;99.90;;;;;;5086817;28;20503;-72
2020/12/13 05:13:59;;;;;;;16.03;14.00;;;8.30;99.90;;;;;;5090458;28;20482;-73
2020/12/13 05:16:25;;;;;;;19.37;13.00;;;8.20;99.90;;;;;;5092204;28;20176;-73
2020/12/13 05:18:52;;;;;;;19.73;12.63;;;8.30;99.90;;;;;;5081566;28;20260;-72
2020/12/13 05:21:22;;;;;;;20.30;14.10;;;8.30;99.90;;;;;;5089301;28;20186;-72
2020/12/13 05:23:51;;;;;;;23.00;14.37;;;8.20;99.90;;;;;;5080489;28;20438;-73
2020/12/13 05:26:22;;;;;;;20.13;13.33;;;8.20;99.90;;;;;;5088743;28;20444;-72
2020/12/13 05:28:50;;;;;;;19.30;15.57;;;8.30;99.90;;;;;;5079839;28;20452;-73
2020/12/13 05:31:25;;;;;;;23.73;15.03;;;8.20;99.90;;;;;;5082551;28;20442;-73
2020/12/13 05:34:03;;;;;;;23.70;14.83;;;8.20;99.90;;;;;;5091632;28;20426;-72
2020/12/13 05:36:31;;;;;;;23.47;15.27;;;8.20;99.90;;;;;;5085067;28;20427;-72
2020/12/13 05:38:58;;;;;;;19.73;15.13;;;8.20;99.90;;;;;;5084146;28;20473;-72
2020/12/13 05:41:29;;;;;;;22.03;15.13;;;8.20;99.90;;;;;;5086654;28;20447;-73
2020/12/13 05:44:18;;;;;;;20.70;15.50;;;8.20;99.90;;;;;;5080962;28;20421;-72
2020/12/13 05:51:49;;;;;;;19.13;14.67;;;8.20;99.90;;;;;;5078890;28;20205;-72
2020/12/13 05:54:23;;;;;;;27.30;15.03;;;8.20;99.90;;;;;;5087348;28;20514;-72
2020/12/13 05:56:51;;;;;;;24.73;13.63;;;8.20;99.90;;;;;;5092498;28;20431;-72
2020/12/13 05:59:17;;;;;;;21.63;13.80;;;8.20;99.90;;;;;;5089970;28;20455;-72
2020/12/13 06:01:46;;;;;;;21.73;16.20;;;8.20;99.90;;;;;;5083997;28;20426;-73
2020/12/13 06:04:15;;;;;;;25.60;15.30;;;8.30;99.90;;;;;;5087344;28;20177;-73
2020/12/13 06:06:44;;;;;;;20.83;15.17;;;8.20;99.90;;;;;;5085799;28;20851;-72
2020/12/13 06:09:11;;;;;;;26.93;18.00;;;8.10;99.90;;;;;;5087354;28;20997;-73
2020/12/13 06:11:43;;;;;;;26.17;16.40;;;8.00;99.90;;;;;;5072501;28;20562;-73
2020/12/13 06:14:16;;;;;;;21.30;16.87;;;8.10;99.90;;;;;;5080316;28;20450;-73
2020/12/13 06:16:42;;;;;;;23.60;17.70;;;8.10;99.90;;;;;;5087992;28;20427;-73
2020/12/13 06:19:10;;;;;;;23.63;16.67;;;8.10;99.90;;;;;;5073381;28;20424;-73
2020/12/13 06:21:38;;;;;;;26.43;16.87;;;8.10;99.90;;;;;;5081912;28;20455;-72
2020/12/13 06:24:06;;;;;;;29.47;16.77;;;8.00;99.90;;;;;;5085940;28;20419;-73
2020/12/13 06:26:32;;;;;;;21.47;14.10;;;8.00;99.90;;;;;;5076712;28;20412;-72
2020/12/13 06:28:58;;;;;;;24.60;15.30;;;8.00;99.90;;;;;;5070872;28;20423;-71
2020/12/13 06:31:23;;;;;;;22.10;14.90;;;8.00;99.90;;;;;;5086147;28;20798;-73
2020/12/13 06:33:49;;;;;;;25.17;17.40;;;8.00;99.90;;;;;;5085197;28;20180;-72
2020/12/13 06:36:15;;;;;;;22.13;15.50;;;7.90;99.90;;;;;;5089235;28;20177;-73
2020/12/13 06:38:41;;;;;;;22.50;15.83;;;8.00;99.90;;;;;;5078941;28;20167;-73
2020/12/13 06:41:15;;;;;;;26.10;16.37;;;7.90;99.90;;;;;;5081029;28;20220;-73
2020/12/13 06:43:41;;;;;;;29.73;18.20;;;8.10;99.90;;;;;;5077872;28;20424;-73
2020/12/13 06:46:19;;;;;;;26.23;16.63;;;8.00;99.90;;;;;;5091869;28;20453;-72
2020/12/13 06:48:45;;;;;;;24.10;17.63;;;8.00;99.90;;;;;;5091595;28;20458;-73
2020/12/13 06:51:16;;;;;;;25.30;17.57;;;8.00;99.90;;;;;;5081623;28;20436;-73
2020/12/13 06:53:43;;;;;;;36.43;20.47;;;7.90;99.90;;;;;;5074638;28;20423;-72
2020/12/13 06:56:10;;;;;;;23.23;17.93;;;7.80;99.90;;;;;;5091205;28;20485;-72
2020/12/13 06:58:42;;;;;;;25.27;16.53;;;7.70;99.90;;;;;;5093118;28;20764;-73
2020/12/13 07:01:39;;;;;;;27.03;17.10;;;7.70;99.90;;;;;;5093759;28;20841;-73
2020/12/13 07:04:31;;;;;;;25.10;17.83;;;7.70;99.90;;;;;;5082341;28;20426;-74
2020/12/13 07:09:30;;;;;;;30.10;19.40;;;7.70;99.90;;;;;;5083418;28;20443;-72
2020/12/13 07:11:57;;;;;;;26.17;19.00;;;7.70;99.90;;;;;;5074426;28;20503;-73
2020/12/13 07:14:25;;;;;;;31.37;19.40;;;7.70;99.90;;;;;;5082918;28;20481;-73
2020/12/13 07:17:08;;;;;;;30.73;18.30;;;7.70;99.90;;;;;;5074472;28;20435;-72
2020/12/13 07:19:35;;;;;;;38.63;18.83;;;7.70;99.90;;;;;;5080665;28;20991;-73
2020/12/13 07:22:03;;;;;;;30.50;20.63;;;7.60;99.90;;;;;;5075521;28;20435;-73
2020/12/13 07:24:29;;;;;;;22.23;16.13;;;7.60;99.90;;;;;;5089694;28;20420;-72
2020/12/13 07:26:55;;;;;;;23.83;16.67;;;7.60;99.90;;;;;;5090049;28;20838;-71
2020/12/13 07:29:21;;;;;;;29.00;20.27;;;7.60;99.90;;;;;;5083190;28;20515;-72
2020/12/13 07:31:47;;;;;;;21.97;15.20;;;7.60;99.90;;;;;;5081663;28;20859;-72
2020/12/13 07:34:13;;;;;;;25.23;16.13;;;7.60;99.90;;;;;;5088192;28;20166;-72
2020/12/13 07:36:39;;;;;;;24.90;16.10;;;7.60;99.90;;;;;;5079349;28;20419;-71
2020/12/13 07:39:07;;;;;;;26.93;15.00;;;7.60;99.90;;;;;;5085083;28;20858;-72
2020/12/13 07:41:33;;;;;;;24.50;14.53;;;7.60;99.90;;;;;;5085333;28;20439;-74
2020/12/13 07:44:07;;;;;;;29.93;16.00;;;7.70;99.90;;;;;;5086135;28;20424;-71
2020/12/13 07:46:34;;;;;;;20.20;12.97;;;7.60;99.90;;;;;;5089489;28;20196;-72
2020/12/13 07:49:13;;;;;;;20.70;15.20;;;7.60;99.90;;;;;;5089317;28;20880;-73
2020/12/13 07:51:44;;;;;;;23.57;15.03;;;7.70;99.90;;;;;;5075021;28;20424;-72
2020/12/13 07:54:10;;;;;;;27.33;15.53;;;7.70;99.90;;;;;;5084154;28;20448;-73
2020/12/13 07:56:36;;;;;;;27.87;15.33;;;7.80;99.90;;;;;;5082468;28;20429;-72
2020/12/13 07:59:10;;;;;;;21.90;14.00;;;7.90;99.90;;;;;;5086721;28;20423;-73
2020/12/13 08:01:36;;;;;;;26.03;15.10;;;8.00;99.90;;;;;;5089883;28;20699;-73
2020/12/13 08:04:03;;;;;;;21.50;13.67;;;8.00;99.90;;;;;;5087591;28;20446;-74
2020/12/13 08:06:28;;;;;;;25.63;13.73;;;8.10;99.90;;;;;;5084761;28;20791;-73
2020/12/13 08:08:54;;;;;;;18.83;13.03;;;8.20;99.90;;;;;;5086371;28;20419;-74
2020/12/13 08:11:20;;;;;;;19.60;13.57;;;8.30;99.90;;;;;;5091019;28;20257;-72
2020/12/13 08:13:47;;;;;;;26.70;13.97;;;8.30;99.90;;;;;;5085990;28;20170;-73
2020/12/13 08:16:14;;;;;;;17.37;12.13;;;8.40;99.90;;;;;;5085343;28;20438;-72
2020/12/13 08:18:45;;;;;;;23.03;12.77;;;8.40;99.90;;;;;;5083991;28;20419;-73
2020/12/13 08:21:14;;;;;;;19.50;13.13;;;8.50;99.90;;;;;;5093739;28;20477;-72
2020/12/13 08:23:40;;;;;;;19.43;12.63;;;8.60;99.90;;;;;;5094147;28;20415;-72
2020/12/13 08:26:08;;;;;;;17.73;12.67;;;8.60;99.90;;;;;;5083739;28;20455;-73
2020/12/13 08:28:36;;;;;;;17.50;13.00;;;8.80;99.90;;;;;;5089346;28;20417;-72
2020/12/13 08:31:05;;;;;;;21.50;13.37;;;8.80;99.90;;;;;;5087064;28;20456;-72
2020/12/13 08:33:30;;;;;;;21.77;14.87;;;8.90;99.90;;;;;;5084212;28;20424;-72
2020/12/13 08:35:57;;;;;;;23.33;14.40;;;9.10;99.90;;;;;;5089485;28;20541;-72
2020/12/13 08:38:23;;;;;;;18.83;13.23;;;9.10;99.90;;;;;;5093092;28;20173;-72
2020/12/13 08:40:49;;;;;;;21.47;12.57;;;9.30;99.90;;;;;;5084175;28;20470;-72
2020/12/13 08:43:19;;;;;;;20.30;11.80;;;9.50;99.90;;;;;;5081107;28;20417;-72
2020/12/13 08:45:55;;;;;;;18.20;11.87;;;9.60;99.90;;;;;;5074398;28;20167;-73
2020/12/13 08:48:27;;;;;;;17.03;9.80;;;10.30;99.90;;;;;;5086304;28;20468;-72
2020/12/13 08:51:11;;;;;;;12.00;9.23;;;11.20;99.90;;;;;;5088702;28;20461;-73
2020/12/13 08:53:37;;;;;;;13.70;9.63;;;11.70;99.90;;;;;;5085416;28;20423;-73
2020/12/13 08:56:08;;;;;;;13.70;9.23;;;11.60;99.90;;;;;;5090985;28;20484;-71
2020/12/13 08:58:51;;;;;;;11.33;8.90;;;11.70;99.90;;;;;;5092008;28;20431;-71
2020/12/13 09:01:18;;;;;;;13.00;9.23;;;11.50;99.90;;;;;;5090019;28;20475;-71
2020/12/13 09:03:43;;;;;;;15.67;9.20;;;10.80;99.90;;;;;;5090560;28;20428;-71
2020/12/13 09:06:10;;;;;;;16.67;10.90;;;10.60;99.90;;;;;;5083644;28;20431;-71
2020/12/13 09:08:35;;;;;;;16.90;14.47;;;10.30;99.90;;;;;;5090171;28;20173;-71
2020/12/13 09:11:04;;;;;;;22.90;12.53;;;10.10;99.90;;;;;;5082567;28;21497;-71
2020/12/13 09:13:33;;;;;;;14.87;10.67;;;10.00;99.90;;;;;;5088503;28;20182;-72
2020/12/13 09:15:58;;;;;;;14.27;9.30;;;9.80;99.90;;;;;;5091058;28;20461;-72
2020/12/13 09:18:24;;;;;;;13.10;9.73;;;9.60;99.90;;;;;;5079183;28;20428;-73
2020/12/13 09:20:57;;;;;;;15.93;11.47;;;9.40;99.90;;;;;;5087051;28;20288;-72
2020/12/13 09:23:23;;;;;;;16.90;9.50;;;9.20;99.90;;;;;;5087908;28;20211;-72
2020/12/13 09:25:51;;;;;;;15.37;8.97;;;9.00;99.90;;;;;;5090447;28;20419;-72
2020/12/13 09:28:17;;;;;;;15.20;8.80;;;9.00;99.90;;;;;;5080065;28;20424;-72
2020/12/13 09:30:44;;;;;;;15.50;8.80;;;9.10;99.90;;;;;;5084725;28;20477;-73
2020/12/13 09:33:11;;;;;;;13.13;8.00;;;9.00;99.90;;;;;;5080438;28;20420;-72
2020/12/13 09:35:37;;;;;;;12.77;8.17;;;9.00;99.90;;;;;;5080593;28;20443;-72
2020/12/13 09:38:05;;;;;;;9.23;7.50;;;9.00;99.90;;;;;;5080191;28;20928;-72
2020/12/13 09:40:32;;;;;;;10.50;6.80;;;9.00;99.90;;;;;;5081028;28;20460;-72
2020/12/13 09:42:58;;;;;;;9.37;7.87;;;9.30;99.90;;;;;;5072168;28;20840;-71
2020/12/13 09:45:25;;;;;;;8.30;6.80;;;9.50;99.90;;;;;;5079177;28;20420;-72
2020/12/13 09:47:55;;;;;;;9.20;6.53;;;9.80;99.90;;;;;;5075753;28;20568;-72
2020/12/13 09:50:22;;;;;;;9.87;6.20;;;10.00;99.90;;;;;;5075844;28;20480;-72
2020/12/13 09:52:48;;;;;;;7.27;5.87;;;10.20;99.90;;;;;;5084613;28;20473;-72
2020/12/13 09:55:13;;;;;;;8.20;6.20;;;10.30;99.90;;;;;;5088359;28;20462;-72
2020/12/13 09:57:39;;;;;;;7.30;4.07;;;10.30;99.90;;;;;;5088084;28;20238;-72
2020/12/13 10:00:05;;;;;;;6.03;4.63;;;10.20;99.90;;;;;;5083515;28;20262;-72
2020/12/13 10:02:31;;;;;;;5.50;4.20;;;10.10;99.90;;;;;;5085896;28;20174;-72
2020/12/13 10:04:56;;;;;;;4.27;3.23;;;10.10;99.90;;;;;;5082555;28;20465;-73
2020/12/13 10:09:56;;;;;;;4.23;3.83;;;9.90;99.90;;;;;;5084166;28;20193;-73
2020/12/13 10:12:22;;;;;;;6.23;3.80;;;10.10;99.90;;;;;;5084451;28;20476;-72
2020/12/13 10:14:48;;;;;;;6.30;4.20;;;9.90;99.90;;;;;;5084843;28;20174;-72
2020/12/13 10:17:14;;;;;;;5.73;4.30;;;9.80;99.90;;;;;;5084696;28;20441;-73
2020/12/13 10:19:40;;;;;;;6.73;4.10;;;9.80;99.90;;;;;;5086902;28;20470;-72
2020/12/13 10:22:05;;;;;;;6.53;4.10;;;9.70;99.90;;;;;;5083445;28;20177;-73
2020/12/13 10:24:31;;;;;;;5.70;4.40;;;9.60;99.90;;;;;;5084477;28;20177;-72
2020/12/13 10:26:57;;;;;;;6.10;4.27;;;9.50;99.90;;;;;;5085385;28;20181;-73
2020/12/13 10:29:23;;;;;;;6.03;4.60;;;9.50;99.90;;;;;;5083802;28;20173;-72
2020/12/13 10:31:48;;;;;;;7.10;4.50;;;9.50;99.90;;;;;;5083718;28;20177;-73
2020/12/13 10:34:16;;;;;;;7.10;4.13;;;9.50;99.90;;;;;;5082570;28;21316;-73
2020/12/13 10:36:41;;;;;;;5.70;4.87;;;9.70;99.90;;;;;;5084837;28;20580;-72
2020/12/13 10:39:08;;;;;;;7.30;4.30;;;9.70;99.90;;;;;;5091293;28;20408;-72
2020/12/13 10:41:35;;;;;;;8.13;4.20;;;9.70;99.90;;;;;;5084921;28;21105;-71
2020/12/13 10:44:00;;;;;;;7.23;4.90;;;9.90;99.90;;;;;;5082540;28;20432;-72
2020/12/13 10:46:26;;;;;;;8.43;4.40;;;9.80;99.90;;;;;;5086078;28;20769;-72
2020/12/13 10:48:53;;;;;;;5.73;4.37;;;10.00;99.90;;;;;;5090217;28;20185;-73
2020/12/13 10:51:19;;;;;;;5.17;4.50;;;10.10;99.90;;;;;;5094431;28;20443;-73
2020/12/13 10:53:46;;;;;;;7.47;4.80;;;10.20;99.90;;;;;;5090060;28;20432;-72
2020/12/13 10:56:12;;;;;;;4.23;3.83;;;10.30;99.90;;;;;;5089957;28;20522;-73
2020/12/13 10:58:40;;;;;;;7.50;4.10;;;10.30;99.90;;;;;;5088644;28;20522;-73
2020/12/13 11:01:06;;;;;;;8.47;4.60;;;10.30;99.90;;;;;;5088952;28;20462;-73
2020/12/13 11:03:32;;;;;;;4.23;3.80;;;10.30;99.90;;;;;;5090899;28;20451;-73
2020/12/13 11:05:58;;;;;;;7.73;4.10;;;10.10;99.90;;;;;;5089136;28;20487;-73
2020/12/13 11:08:23;;;;;;;5.27;3.40;;;10.10;99.90;;;;;;5091148;28;20176;-74
2020/12/13 11:10:50;;;;;;;5.70;3.20;;;10.20;99.90;;;;;;5094182;28;20213;-74
2020/12/13 11:13:16;;;;;;;6.97;3.40;;;10.20;99.90;;;;;;5093647;28;20227;-74
2020/12/13 11:15:43;;;;;;;5.10;3.20;;;10.40;99.90;;;;;;5092911;28;20439;-74
2020/12/13 11:18:08;;;;;;;5.37;3.00;;;10.30;99.90;;;;;;5087468;28;20435;-73
2020/12/13 11:20:34;;;;;;;5.13;3.23;;;10.30;99.90;;;;;;5093075;28;20825;-74
2020/12/13 11:23:00;;;;;;;3.90;3.50;;;10.40;99.90;;;;;;5092648;28;20180;-74
2020/12/13 11:25:26;;;;;;;5.57;2.87;;;10.60;99.90;;;;;;5094111;28;20435;-73
2020/12/13 11:27:51;;;;;;;5.33;3.37;;;11.10;99.90;;;;;;5093714;28;20431;-73
2020/12/13 11:30:17;;;;;;;7.43;2.77;;;12.40;99.90;;;;;;5095106;28;20545;-71
2020/12/13 11:32:44;;;;;;;3.30;2.40;;;13.80;99.90;;;;;;5091943;28;20181;-74
2020/12/13 11:35:12;;;;;;;2.67;2.47;;;15.50;99.90;;;;;;5093967;28;20213;-73
2020/12/13 11:37:38;;;;;;;5.43;2.27;;;17.10;99.90;;;;;;5094059;28;20511;-71
2020/12/13 11:40:04;;;;;;;2.93;2.60;;;18.20;99.90;;;;;;5093109;28;20550;-74
2020/12/13 11:42:30;;;;;;;4.30;2.47;;;18.60;99.90;;;;;;5094822;28;20415;-74
2020/12/13 11:44:55;;;;;;;2.90;2.10;;;19.00;99.90;;;;;;5093693;28;20178;-73
2020/12/13 11:47:21;;;;;;;2.80;1.80;;;18.70;98.60;;;;;;5098363;28;20222;-72
2020/12/13 11:49:47;;;;;;;17.03;15.27;;;19.50;99.90;;;;;;5098278;28;20219;-74
2020/12/13 11:52:13;;;;;;;5.00;3.63;;;18.60;92.20;;;;;;5096155;28;20185;-72
2020/12/13 11:54:38;;;;;;;2.10;1.37;;;17.00;99.90;;;;;;5102923;28;20167;-74
2020/12/13 11:57:05;;;;;;;6.40;1.87;;;16.20;99.90;;;;;;5095334;28;20425;-73
2020/12/13 11:59:30;;;;;;;3.60;1.70;;;15.90;99.90;;;;;;5090373;28;20197;-73
2020/12/13 12:01:56;;;;;;;1.83;1.53;;;15.30;99.90;;;;;;5095856;28;20430;-73
2020/12/13 12:04:22;;;;;;;5.53;1.80;;;14.90;99.90;;;;;;5095917;28;20263;-73
2020/12/13 12:06:49;;;;;;;2.67;1.80;;;14.70;99.90;;;;;;5096081;28;20635;-73
2020/12/13 12:09:15;;;;;;;3.70;1.50;;;14.30;99.90;;;;;;5097412;28;20498;-73
2020/12/13 12:11:42;;;;;;;3.03;1.30;;;14.00;99.90;;;;;;5096641;28;20427;-73
2020/12/13 12:14:11;;;;;;;3.30;1.60;;;14.30;99.90;;;;;;5095051;28;20432;-73
2020/12/13 12:16:42;;;;;;;3.97;1.87;;;15.60;99.90;;;;;;5096905;28;20424;-74
2020/12/13 12:19:09;;;;;;;1.83;1.20;;;16.20;99.90;;;;;;5096438;28;20947;-72
2020/12/13 12:21:36;;;;;;;2.07;1.50;;;16.70;99.90;;;;;;5095244;28;20523;-73
2020/12/13 12:24:05;;;;;;;4.60;1.80;;;17.00;99.90;;;;;;5096596;28;20781;-73
2020/12/13 12:26:34;;;;;;;2.07;1.30;;;16.00;99.90;;;;;;5095687;28;20502;-73
2020/12/13 12:29:01;;;;;;;2.30;1.40;;;16.10;99.90;;;;;;5095080;28;20431;-73
2020/12/13 12:31:27;;;;;;;2.80;1.70;;;16.00;99.90;;;;;;5095835;28;20444;-73
2020/12/13 12:33:54;;;;;;;3.73;1.73;;;15.40;99.90;;;;;;5096932;28;20489;-73
2020/12/13 12:36:22;;;;;;;3.13;1.60;;;14.00;99.90;;;;;;5096968;28;20185;-73
2020/12/13 12:38:48;;;;;;;3.20;1.50;;;13.40;99.90;;;;;;5097787;28;20481;-73
2020/12/13 12:41:16;;;;;;;1.57;1.07;;;12.80;99.90;;;;;;5096536;28;20467;-72
2020/12/13 12:43:43;;;;;;;2.00;1.37;;;12.70;99.90;;;;;;5095799;28;20824;-72
2020/12/13 12:46:09;;;;;;;2.60;2.20;;;12.20;99.90;;;;;;5096173;28;20430;-72
2020/12/13 12:48:35;;;;;;;8.37;2.80;;;12.40;99.90;;;;;;5095994;28;20436;-72
2020/12/13 12:51:02;;;;;;;3.47;1.47;;;12.20;99.90;;;;;;5096472;28;20948;-70